Time;durP1;ratioP1;P1;durP2;ratioP2;P2;SDS_P1;SDS_P2;PMS_P1;PMS_P2;Temp;Humidity;BMP_temperature;BMP_pressure;BME280_temperature;BME280_humidity;BME280_pressure;Samples;Min_cycle;Max_cycle;Signal;HPM_P1;HPM_P2
2021/09/30 00:01:06;;;;;;;6.63;1.20;;;;;;;;;;5093820;28;20060;-63
2021/09/30 00:03:51;;;;;;;11.50;1.77;;;;;;;;;;5093452;28;20048;-62
2021/09/30 00:06:37;;;;;;;8.65;1.48;;;;;;;;;;5093882;28;20076;-63
2021/09/30 00:09:22;;;;;;;6.25;1.67;;;;;;;;;;5093768;28;20048;-63
2021/09/30 00:12:13;;;;;;;8.48;1.30;;;;;;;;;;5093642;28;20118;-63
2021/09/30 00:33:39;;;;;;;9.25;1.40;;;;;;;;;;5093237;28;20047;-63
2021/09/30 00:42:25;;;;;;;12.10;1.55;;;;;;;;;;5093183;28;20122;-63
2021/09/30 00:45:29;;;;;;;9.73;1.40;;;;;;;;;;5092804;28;20047;-63
2021/09/30 00:54:28;;;;;;;6.65;0.88;;;;;;;;;;5092551;28;20091;-63
2021/09/30 01:19:48;;;;;;;8.05;1.70;;;;;;;;;;5066519;28;20051;-63
2021/09/30 02:25:09;;;;;;;5.65;0.90;;;;;;;;;;5064443;28;20421;-62
2021/09/30 02:58:36;;;;;;;7.85;1.00;;;;;;;;;;5068339;28;20048;-63
2021/09/30 03:01:23;;;;;;;5.60;1.23;;;;;;;;;;5065823;28;20405;-62
2021/09/30 03:04:13;;;;;;;6.28;1.50;;;;;;;;;;5066064;28;20406;-62
2021/09/30 03:06:58;;;;;;;4.57;0.77;;;;;;;;;;5079714;28;20132;-62
2021/09/30 03:09:45;;;;;;;5.70;0.90;;;;;;;;;;5079598;28;20052;-62
2021/09/30 03:12:31;;;;;;;6.60;1.17;;;;;;;;;;5079779;28;20043;-62
2021/09/30 03:18:24;;;;;;;4.32;1.00;;;;;;;;;;5094852;28;20051;-63
2021/09/30 03:23:55;;;;;;;6.15;1.85;;;;;;;;;;5079003;28;20122;-62
2021/09/30 03:26:40;;;;;;;7.18;1.42;;;;;;;;;;5079442;28;20052;-63
2021/09/30 03:29:25;;;;;;;8.60;2.10;;;;;;;;;;5065434;28;20115;-63
2021/09/30 03:32:11;;;;;;;8.45;1.83;;;;;;;;;;5065167;28;20048;-63
2021/09/30 03:35:05;;;;;;;7.40;1.58;;;;;;;;;;5094275;28;20503;-62
2021/09/30 03:37:51;;;;;;;10.27;1.85;;;;;;;;;;5065113;28;20052;-63
2021/09/30 03:40:37;;;;;;;5.18;1.45;;;;;;;;;;5079120;28;20052;-62
2021/09/30 03:43:22;;;;;;;6.70;2.17;;;;;;;;;;5079091;28;20080;-63
2021/09/30 03:46:10;;;;;;;7.65;1.65;;;;;;;;;;5078862;28;20123;-63
2021/09/30 03:49:21;;;;;;;13.98;2.50;;;;;;;;;;5078693;28;20076;-63
2021/09/30 03:52:12;;;;;;;9.13;1.92;;;;;;;;;;5078577;28;20048;-63
2021/09/30 04:00:52;;;;;;;8.32;1.70;;;;;;;;;;5093939;28;20056;-63
2021/09/30 04:03:37;;;;;;;7.60;1.40;;;;;;;;;;5078178;28;20048;-63
2021/09/30 04:06:23;;;;;;;6.57;1.73;;;;;;;;;;5078668;28;20228;-63
2021/09/30 04:09:09;;;;;;;11.18;2.15;;;;;;;;;;5078532;28;20056;-63
2021/09/30 04:11:57;;;;;;;4.97;1.23;;;;;;;;;;5093523;28;20048;-63
2021/09/30 04:14:43;;;;;;;5.78;1.63;;;;;;;;;;5078121;28;20052;-63
2021/09/30 04:17:29;;;;;;;7.70;1.50;;;;;;;;;;5097354;28;20051;-63
2021/09/30 04:20:17;;;;;;;5.47;1.13;;;;;;;;;;5098408;28;20055;-63
2021/09/30 04:23:03;;;;;;;4.47;1.48;;;;;;;;;;5098600;28;20047;-62
2021/09/30 04:25:49;;;;;;;4.45;1.50;;;;;;;;;;5098379;28;20048;-63
2021/09/30 04:28:37;;;;;;;4.82;1.30;;;;;;;;;;5098304;28;20044;-63
2021/09/30 04:31:23;;;;;;;5.57;1.55;;;;;;;;;;5098342;28;20052;-63
2021/09/30 04:34:08;;;;;;;7.38;1.80;;;;;;;;;;5097906;28;20059;-63
2021/09/30 04:36:54;;;;;;;6.28;1.52;;;;;;;;;;5098129;28;20722;-62
2021/09/30 04:39:41;;;;;;;8.15;2.65;;;;;;;;;;5098331;28;20043;-63
2021/09/30 04:42:26;;;;;;;6.78;2.20;;;;;;;;;;5098180;28;20047;-62
2021/09/30 04:45:11;;;;;;;6.75;2.67;;;;;;;;;;5097752;28;20059;-63
2021/09/30 04:47:58;;;;;;;16.73;5.38;;;;;;;;;;5098038;28;20055;-62
2021/09/30 04:50:44;;;;;;;19.20;6.63;;;;;;;;;;5113286;28;20059;-63
2021/09/30 04:53:30;;;;;;;28.15;12.15;;;;;;;;;;5096275;28;20047;-64
2021/09/30 04:56:16;;;;;;;33.85;14.07;;;;;;;;;;5097599;28;20122;-63
2021/09/30 04:59:07;;;;;;;37.50;14.95;;;;;;;;;;5097712;28;20048;-63
2021/09/30 05:01:53;;;;;;;32.03;15.20;;;;;;;;;;5097596;28;20118;-62
2021/09/30 05:04:39;;;;;;;43.65;18.52;;;;;;;;;;5097507;28;20044;-63
2021/09/30 05:07:26;;;;;;;51.95;24.92;;;;;;;;;;5094431;28;20048;-62
2021/09/30 05:10:13;;;;;;;56.83;26.67;;;;;;;;;;5085778;28;20123;-63
2021/09/30 05:13:03;;;;;;;54.55;26.27;;;;;;;;;;5090138;28;20079;-62
2021/09/30 05:15:48;;;;;;;69.63;30.77;;;;;;;;;;5100557;28;20455;-63
2021/09/30 05:18:56;;;;;;;54.88;25.73;;;;;;;;;;5100542;28;20043;-63
2021/09/30 05:21:42;;;;;;;62.85;28.05;;;;;;;;;;5077200;28;20410;-63
2021/09/30 05:24:27;;;;;;;58.15;27.00;;;;;;;;;;5076415;28;20044;-63
2021/09/30 05:27:13;;;;;;;62.13;28.83;;;;;;;;;;5076921;28;20055;-63
2021/09/30 05:29:59;;;;;;;67.03;28.25;;;;;;;;;;5077070;28;20052;-63
2021/09/30 05:32:47;;;;;;;62.95;30.50;;;;;;;;;;5077027;28;20119;-63
2021/09/30 05:35:36;;;;;;;54.58;28.27;;;;;;;;;;5076692;28;20060;-62
2021/09/30 05:38:21;;;;;;;65.00;30.13;;;;;;;;;;5092323;28;20056;-62
2021/09/30 05:41:06;;;;;;;61.13;26.75;;;;;;;;;;5076752;28;20126;-63
2021/09/30 05:43:55;;;;;;;55.92;27.60;;;;;;;;;;5076479;28;20395;-63
2021/09/30 05:46:44;;;;;;;60.78;28.80;;;;;;;;;;5076934;28;20044;-63
2021/09/30 05:49:29;;;;;;;68.95;29.05;;;;;;;;;;5076909;28;20568;-63
2021/09/30 05:52:37;;;;;;;62.63;30.85;;;;;;;;;;5133218;22;20505;-60
2021/09/30 05:55:53;;;;;;;58.90;28.35;;;;;;;;;;5091129;28;20048;-62
2021/09/30 05:58:38;;;;;;;57.72;27.98;;;;;;;;;;5091317;28;20410;-63
2021/09/30 06:11:13;;;;;;;48.75;20.83;;;;;;;;;;5076510;28;20070;-63
2021/09/30 06:14:06;;;;;;;45.55;20.13;;;;;;;;;;5091773;28;20055;-63
2021/09/30 06:16:52;;;;;;;42.03;18.10;;;;;;;;;;5091886;28;20064;-64
2021/09/30 06:19:37;;;;;;;45.78;19.58;;;;;;;;;;5076697;28;20052;-62
2021/09/30 06:22:25;;;;;;;39.80;18.77;;;;;;;;;;5080513;28;20059;-63
2021/09/30 06:25:10;;;;;;;42.17;18.45;;;;;;;;;;5080094;28;20052;-62
2021/09/30 06:27:57;;;;;;;39.15;18.60;;;;;;;;;;5080542;28;20048;-63
2021/09/30 06:30:42;;;;;;;42.35;18.33;;;;;;;;;;5094709;28;20121;-63
2021/09/30 06:33:52;;;;;;;38.95;15.82;;;;;;;;;;5095190;28;20493;-62
2021/09/30 06:36:53;;;;;;;47.17;16.65;;;;;;;;;;5094644;28;20094;-62
2021/09/30 06:39:39;;;;;;;42.63;19.60;;;;;;;;;;5094524;28;20052;-63
2021/09/30 06:42:25;;;;;;;48.90;18.75;;;;;;;;;;5080249;28;20048;-63
2021/09/30 06:45:10;;;;;;;43.63;17.33;;;;;;;;;;5095161;28;20127;-63
2021/09/30 06:47:58;;;;;;;48.15;19.00;;;;;;;;;;5095296;28;20659;-63
2021/09/30 06:50:50;;;;;;;46.20;17.73;;;;;;;;;;5080135;28;20052;-63
2021/09/30 06:53:44;;;;;;;48.38;18.50;;;;;;;;;;5079799;28;20051;-62
2021/09/30 06:56:29;;;;;;;48.55;18.08;;;;;;;;;;5095049;28;20056;-61
2021/09/30 06:59:36;;;;;;;47.78;19.58;;;;;;;;;;5095051;28;20048;-62
2021/09/30 07:02:41;;;;;;;47.13;19.45;;;;;;;;;;5094984;28;20048;-62
2021/09/30 07:06:04;;;;;;;48.22;19.45;;;;;;;;;;5095059;28;20048;-61
2021/09/30 07:08:49;;;;;;;51.15;20.45;;;;;;;;;;5094970;28;20048;-61
2021/09/30 07:11:35;;;;;;;53.38;21.00;;;;;;;;;;5095040;28;20059;-61
2021/09/30 07:14:20;;;;;;;55.40;20.70;;;;;;;;;;5094575;28;20115;-62
2021/09/30 07:17:05;;;;;;;60.72;22.25;;;;;;;;;;5094750;28;20048;-64
2021/09/30 07:19:51;;;;;;;54.28;22.50;;;;;;;;;;5094951;28;20417;-62
2021/09/30 07:22:36;;;;;;;54.00;22.50;;;;;;;;;;5094724;28;20047;-61
2021/09/30 07:25:25;;;;;;;54.95;23.88;;;;;;;;;;5094310;28;20441;-63
2021/09/30 07:28:10;;;;;;;51.30;21.52;;;;;;;;;;5094441;28;20133;-63
2021/09/30 07:30:55;;;;;;;50.30;23.20;;;;;;;;;;5094606;28;20048;-62
2021/09/30 07:33:40;;;;;;;49.25;21.85;;;;;;;;;;5094280;28;20051;-62
2021/09/30 07:36:26;;;;;;;55.75;20.33;;;;;;;;;;5094363;28;20508;-64
2021/09/30 07:39:11;;;;;;;31.98;14.05;;;;;;;;;;5094290;28;20523;-61
2021/09/30 07:41:56;;;;;;;28.33;9.90;;;;;;;;;;5094253;28;20052;-64
2021/09/30 07:44:41;;;;;;;17.17;7.20;;;;;;;;;;5093764;28;20044;-62
2021/09/30 07:47:27;;;;;;;18.77;7.65;;;;;;;;;;5096534;28;20052;-63
2021/09/30 07:50:12;;;;;;;17.67;4.47;;;;;;;;;;5090054;28;20048;-63
2021/09/30 07:52:57;;;;;;;16.02;3.85;;;;;;;;;;5083515;28;20052;-64
2021/09/30 07:55:43;;;;;;;7.78;2.75;;;;;;;;;;5084905;28;20080;-64
2021/09/30 07:58:29;;;;;;;9.88;1.92;;;;;;;;;;5085823;28;20421;-63
2021/09/30 08:01:14;;;;;;;7.07;1.63;;;;;;;;;;5079696;28;20502;-63
2021/09/30 08:04:00;;;;;;;7.50;1.27;;;;;;;;;;5074572;28;20052;-64
2021/09/30 08:06:45;;;;;;;3.70;1.15;;;;;;;;;;5074123;28;20123;-64
2021/09/30 08:09:30;;;;;;;7.78;2.22;;;;;;;;;;5074061;28;20532;-62
2021/09/30 08:12:16;;;;;;;10.40;2.40;;;;;;;;;;5075077;28;20052;-63
2021/09/30 08:15:01;;;;;;;5.72;1.25;;;;;;;;;;5074410;28;20057;-64
2021/09/30 08:17:46;;;;;;;6.00;1.05;;;;;;;;;;5074509;28;20414;-64
2021/09/30 08:20:34;;;;;;;7.78;1.60;;;;;;;;;;5074769;28;20048;-63
2021/09/30 08:23:19;;;;;;;12.65;2.00;;;;;;;;;;5075393;28;20048;-64
2021/09/30 08:26:05;;;;;;;8.68;1.40;;;;;;;;;;5075152;28;20056;-64
2021/09/30 08:28:51;;;;;;;10.10;1.90;;;;;;;;;;5075094;28;20056;-64
2021/09/30 08:31:36;;;;;;;7.38;1.40;;;;;;;;;;5075592;28;20049;-64
2021/09/30 08:34:21;;;;;;;7.20;1.33;;;;;;;;;;5075374;28;20045;-63
2021/09/30 08:37:07;;;;;;;7.40;2.28;;;;;;;;;;5076278;28;20097;-62
2021/09/30 08:39:54;;;;;;;5.32;1.13;;;;;;;;;;5077103;28;20052;-64
2021/09/30 08:42:39;;;;;;;13.15;1.80;;;;;;;;;;5076836;28;20052;-63
2021/09/30 08:45:25;;;;;;;9.52;1.88;;;;;;;;;;5076581;28;20045;-64
2021/09/30 08:48:10;;;;;;;4.20;1.02;;;;;;;;;;5077130;28;20455;-64
2021/09/30 08:50:55;;;;;;;13.13;1.48;;;;;;;;;;5082502;28;20127;-64
2021/09/30 08:53:41;;;;;;;6.13;1.50;;;;;;;;;;5085183;28;20127;-63
2021/09/30 08:56:26;;;;;;;7.72;1.52;;;;;;;;;;5087243;28;20501;-64
2021/09/30 08:59:13;;;;;;;9.93;1.55;;;;;;;;;;5084921;28;20049;-64
2021/09/30 09:02:24;;;;;;;5.90;1.13;;;;;;;;;;5085544;28;20041;-62
2021/09/30 09:05:09;;;;;;;10.98;2.58;;;;;;;;;;5077394;28;20457;-64
2021/09/30 09:07:55;;;;;;;7.03;1.77;;;;;;;;;;5076528;28;20080;-63
2021/09/30 09:10:41;;;;;;;11.02;2.05;;;;;;;;;;5081176;28;20044;-64
2021/09/30 09:13:26;;;;;;;8.40;1.63;;;;;;;;;;5084306;28;20041;-64
2021/09/30 09:16:12;;;;;;;5.65;1.70;;;;;;;;;;5084579;28;20056;-63
2021/09/30 09:18:57;;;;;;;10.98;2.08;;;;;;;;;;5083181;28;20052;-63
2021/09/30 09:21:42;;;;;;;15.40;2.90;;;;;;;;;;5072412;28;20056;-63
2021/09/30 09:24:27;;;;;;;12.70;2.63;;;;;;;;;;5075221;28;20461;-63
2021/09/30 09:27:13;;;;;;;12.50;2.60;;;;;;;;;;5072308;28;20052;-63
2021/09/30 09:29:58;;;;;;;10.07;2.65;;;;;;;;;;5057255;28;20049;-63
2021/09/30 09:33:02;;;;;;;13.35;3.10;;;;;;;;;;5072114;28;20060;-63
2021/09/30 09:35:54;;;;;;;8.55;3.10;;;;;;;;;;5071959;28;20472;-63
2021/09/30 09:38:55;;;;;;;14.90;3.40;;;;;;;;;;5072286;28;20433;-63
2021/09/30 09:41:40;;;;;;;10.52;2.72;;;;;;;;;;5072675;28;20056;-63
2021/09/30 09:44:25;;;;;;;12.57;2.50;;;;;;;;;;5071807;28;20041;-63
2021/09/30 09:47:20;;;;;;;14.30;2.50;;;;;;;;;;5072046;28;20052;-63
2021/09/30 09:50:24;;;;;;;13.82;2.97;;;;;;;;;;5072223;28;20048;-64
2021/09/30 09:53:09;;;;;;;10.02;1.75;;;;;;;;;;5072055;28;20044;-63
2021/09/30 09:55:56;;;;;;;6.05;1.55;;;;;;;;;;5074769;28;20662;-62
2021/09/30 09:58:57;;;;;;;10.90;1.55;;;;;;;;;;5061397;28;20048;-63
2021/09/30 10:01:47;;;;;;;8.85;1.75;;;;;;;;;;5076375;28;20060;-64
2021/09/30 10:04:32;;;;;;;8.93;1.60;;;;;;;;;;5076531;28;20052;-64
2021/09/30 10:07:17;;;;;;;15.80;2.30;;;;;;;;;;5077399;28;20048;-64
2021/09/30 10:10:03;;;;;;;6.80;1.30;;;;;;;;;;5070794;28;20041;-64
2021/09/30 10:12:48;;;;;;;8.30;1.52;;;;;;;;;;5086928;28;20043;-64
2021/09/30 10:15:34;;;;;;;9.63;2.35;;;;;;;;;;5072646;28;20045;-63
2021/09/30 10:18:19;;;;;;;8.65;1.35;;;;;;;;;;5088128;28;20530;-63
2021/09/30 10:21:04;;;;;;;10.68;1.80;;;;;;;;;;5096097;28;20131;-64
2021/09/30 10:23:51;;;;;;;6.20;1.50;;;;;;;;;;5095703;28;20493;-63
2021/09/30 10:26:44;;;;;;;10.15;1.70;;;;;;;;;;5096115;28;20055;-64
2021/09/30 10:29:39;;;;;;;6.68;1.42;;;;;;;;;;5098513;28;20056;-63
2021/09/30 10:32:25;;;;;;;10.30;1.63;;;;;;;;;;5096174;28;20048;-63
2021/09/30 10:35:11;;;;;;;7.05;1.42;;;;;;;;;;5095518;28;20043;-64
2021/09/30 10:38:15;;;;;;;8.00;1.20;;;;;;;;;;5095886;28;20048;-62
2021/09/30 10:41:05;;;;;;;7.25;1.65;;;;;;;;;;5087897;28;20498;-63
2021/09/30 10:43:50;;;;;;;8.70;1.13;;;;;;;;;;5085658;28;20056;-63
2021/09/30 10:46:36;;;;;;;5.07;1.40;;;;;;;;;;5084150;28;20052;-62
2021/09/30 10:49:28;;;;;;;6.93;1.38;;;;;;;;;;5084808;28;20506;-64
2021/09/30 10:52:13;;;;;;;8.50;1.02;;;;;;;;;;5074828;28;20065;-64
2021/09/30 10:55:10;;;;;;;5.95;1.10;;;;;;;;;;5074648;28;20592;-63
2021/09/30 10:57:56;;;;;;;6.68;1.50;;;;;;;;;;5082991;28;20084;-63
2021/09/30 11:00:48;;;;;;;7.82;1.20;;;;;;;;;;5085676;28;20044;-63
2021/09/30 11:03:33;;;;;;;10.73;1.60;;;;;;;;;;5084128;28;20052;-63
2021/09/30 11:06:21;;;;;;;7.07;1.33;;;;;;;;;;5084457;28;20053;-63
2021/09/30 11:09:10;;;;;;;8.98;1.83;;;;;;;;;;5095183;28;20115;-63
2021/09/30 11:12:11;;;;;;;6.65;2.25;;;;;;;;;;5095098;28;20052;-63
2021/09/30 11:14:57;;;;;;;10.75;2.55;;;;;;;;;;5094620;28;20127;-62
2021/09/30 11:17:42;;;;;;;7.55;1.30;;;;;;;;;;5091806;28;20040;-62
2021/09/30 11:20:35;;;;;;;5.43;1.00;;;;;;;;;;5074073;28;20057;-63
2021/09/30 11:23:46;;;;;;;8.65;1.13;;;;;;;;;;5073742;28;20052;-62
2021/09/30 11:26:52;;;;;;;6.05;1.25;;;;;;;;;;5074227;28;20528;-62
2021/09/30 11:29:38;;;;;;;6.82;1.23;;;;;;;;;;5074276;28;20052;-62
2021/09/30 11:32:24;;;;;;;7.93;1.92;;;;;;;;;;5074357;28;20052;-64
2021/09/30 11:35:09;;;;;;;5.00;1.10;;;;;;;;;;5074028;28;20056;-63
2021/09/30 11:37:54;;;;;;;8.25;0.93;;;;;;;;;;5074079;28;20056;-62
2021/09/30 11:40:40;;;;;;;6.05;1.52;;;;;;;;;;5086873;28;20059;-63
2021/09/30 11:43:25;;;;;;;6.35;0.90;;;;;;;;;;5078393;28;20500;-64
2021/09/30 11:46:26;;;;;;;6.97;1.10;;;;;;;;;;5077796;28;20494;-63
2021/09/30 11:49:12;;;;;;;11.18;1.23;;;;;;;;;;5088759;28;20422;-63
2021/09/30 11:51:58;;;;;;;6.00;1.30;;;;;;;;;;5129064;22;20071;-63
2021/09/30 11:54:44;;;;;;;4.13;0.90;;;;;;;;;;5110467;28;20047;-63
2021/09/30 11:57:29;;;;;;;3.45;0.80;;;;;;;;;;5109740;28;20056;-63
2021/09/30 12:00:15;;;;;;;14.93;1.55;;;;;;;;;;5102385;28;20052;-62
2021/09/30 12:03:04;;;;;;;6.60;1.20;;;;;;;;;;5112998;27;20052;-62
2021/09/30 12:05:52;;;;;;;5.63;1.15;;;;;;;;;;5113652;28;20085;-62
2021/09/30 12:08:37;;;;;;;6.28;1.48;;;;;;;;;;5113644;28;20051;-62
2021/09/30 12:11:22;;;;;;;7.45;1.25;;;;;;;;;;5098854;28;20052;-63
2021/09/30 12:14:08;;;;;;;8.90;1.52;;;;;;;;;;5114591;27;20044;-62
2021/09/30 12:16:54;;;;;;;7.13;1.20;;;;;;;;;;5113606;28;20047;-61
2021/09/30 12:19:43;;;;;;;9.75;1.52;;;;;;;;;;5112673;28;20059;-62
2021/09/30 12:22:33;;;;;;;5.80;1.48;;;;;;;;;;5113674;28;20059;-61
2021/09/30 12:25:24;;;;;;;7.15;1.48;;;;;;;;;;5112913;28;20043;-62
2021/09/30 12:28:09;;;;;;;5.65;1.10;;;;;;;;;;5113427;28;20081;-62
2021/09/30 12:30:54;;;;;;;16.88;1.75;;;;;;;;;;5112993;28;20059;-63
2021/09/30 12:33:40;;;;;;;9.70;2.17;;;;;;;;;;5112947;28;20122;-63
2021/09/30 12:36:25;;;;;;;6.35;1.50;;;;;;;;;;5113102;28;20055;-63
2021/09/30 12:39:10;;;;;;;6.22;1.67;;;;;;;;;;5107399;28;20055;-62
2021/09/30 12:41:56;;;;;;;8.43;1.85;;;;;;;;;;5113563;28;20047;-62
2021/09/30 12:44:43;;;;;;;8.65;1.77;;;;;;;;;;5113069;28;20052;-62
2021/09/30 12:47:29;;;;;;;5.78;1.20;;;;;;;;;;5113540;28;20047;-62
2021/09/30 12:50:16;;;;;;;6.78;1.42;;;;;;;;;;5113388;28;20051;-63
2021/09/30 12:53:01;;;;;;;6.40;1.67;;;;;;;;;;5113044;28;20501;-63
2021/09/30 12:55:47;;;;;;;11.73;2.85;;;;;;;;;;5113375;28;20051;-63
2021/09/30 12:58:33;;;;;;;5.03;1.50;;;;;;;;;;5113375;28;20443;-64
2021/09/30 13:01:39;;;;;;;8.32;1.27;;;;;;;;;;5113249;28;20619;-64
2021/09/30 13:04:27;;;;;;;6.07;1.38;;;;;;;;;;5113177;28;20413;-64
2021/09/30 13:07:12;;;;;;;4.30;1.30;;;;;;;;;;5113259;28;20051;-64
2021/09/30 13:10:02;;;;;;;9.32;1.40;;;;;;;;;;5113594;28;20067;-63
2021/09/30 13:12:59;;;;;;;6.47;0.95;;;;;;;;;;5113524;28;20051;-63
2021/09/30 13:15:45;;;;;;;8.65;1.67;;;;;;;;;;5113192;28;20439;-62
2021/09/30 13:18:30;;;;;;;10.02;1.88;;;;;;;;;;5113625;28;20055;-63
2021/09/30 13:21:15;;;;;;;9.35;1.30;;;;;;;;;;5112817;28;20502;-63
2021/09/30 13:24:00;;;;;;;7.97;1.17;;;;;;;;;;5112536;28;20055;-63
2021/09/30 13:26:46;;;;;;;5.05;0.93;;;;;;;;;;5112859;28;20047;-62
2021/09/30 13:29:31;;;;;;;6.63;1.70;;;;;;;;;;5112698;28;20119;-61
2021/09/30 13:32:16;;;;;;;4.82;1.13;;;;;;;;;;5112619;28;20043;-61
2021/09/30 13:35:02;;;;;;;4.20;0.95;;;;;;;;;;5112535;28;20056;-62
2021/09/30 13:37:47;;;;;;;6.97;1.00;;;;;;;;;;5112723;28;20126;-62
2021/09/30 13:40:32;;;;;;;6.30;1.08;;;;;;;;;;5112701;28;20055;-62
2021/09/30 13:43:18;;;;;;;6.20;1.02;;;;;;;;;;5112660;28;20051;-62
2021/09/30 13:46:02;;;;;;;5.43;1.77;;;;;;;;;;5112540;28;20043;-62
2021/09/30 13:48:48;;;;;;;4.50;0.88;;;;;;;;;;5112465;28;20048;-62
2021/09/30 13:51:33;;;;;;;7.45;1.77;;;;;;;;;;5112514;28;20123;-62
2021/09/30 13:54:18;;;;;;;4.15;1.00;;;;;;;;;;5112152;28;20505;-63
2021/09/30 13:57:04;;;;;;;6.97;1.67;;;;;;;;;;5112970;28;20130;-62
2021/09/30 13:59:49;;;;;;;8.88;0.93;;;;;;;;;;5113129;28;20043;-64
2021/09/30 14:02:35;;;;;;;5.82;1.25;;;;;;;;;;5110359;28;20052;-62
2021/09/30 14:05:21;;;;;;;5.78;1.20;;;;;;;;;;5108550;28;20051;-62
2021/09/30 14:08:06;;;;;;;7.15;1.42;;;;;;;;;;5109601;28;20059;-61
2021/09/30 14:10:51;;;;;;;5.85;1.83;;;;;;;;;;5109680;28;20089;-62
2021/09/30 14:13:37;;;;;;;7.28;1.27;;;;;;;;;;5110852;28;20428;-62
2021/09/30 14:16:23;;;;;;;5.28;1.10;;;;;;;;;;5111283;28;20592;-62
2021/09/30 14:19:08;;;;;;;4.35;1.58;;;;;;;;;;5112331;28;20052;-62
2021/09/30 14:21:53;;;;;;;6.60;1.10;;;;;;;;;;5096686;28;20056;-62
2021/09/30 14:24:39;;;;;;;9.20;1.35;;;;;;;;;;5111380;28;20140;-61
2021/09/30 14:27:27;;;;;;;8.57;1.55;;;;;;;;;;5112181;28;20051;-62
2021/09/30 14:30:12;;;;;;;7.65;1.35;;;;;;;;;;5112025;28;20126;-62
2021/09/30 14:32:58;;;;;;;5.43;1.27;;;;;;;;;;5111787;28;20127;-62
2021/09/30 14:35:43;;;;;;;7.20;1.58;;;;;;;;;;5111538;28;20052;-61
2021/09/30 14:38:28;;;;;;;4.53;1.20;;;;;;;;;;5112071;28;20051;-62
2021/09/30 14:41:13;;;;;;;4.82;1.42;;;;;;;;;;5112248;28;20052;-62
2021/09/30 14:43:59;;;;;;;5.13;1.52;;;;;;;;;;5115705;28;20056;-62
2021/09/30 14:46:44;;;;;;;9.95;1.80;;;;;;;;;;5115280;28;20421;-62
2021/09/30 14:49:33;;;;;;;6.63;1.65;;;;;;;;;;5115561;28;20047;-62
2021/09/30 14:52:18;;;;;;;5.07;1.40;;;;;;;;;;5115299;28;20521;-61
2021/09/30 14:55:04;;;;;;;5.22;1.65;;;;;;;;;;5115236;28;20055;-62
2021/09/30 14:57:49;;;;;;;7.70;1.60;;;;;;;;;;5115280;28;20479;-62
2021/09/30 15:00:34;;;;;;;7.45;1.88;;;;;;;;;;5093705;28;20048;-61
2021/09/30 15:03:19;;;;;;;4.72;1.45;;;;;;;;;;5114944;28;20541;-61
2021/09/30 15:06:11;;;;;;;6.07;1.40;;;;;;;;;;5115117;28;20051;-61
2021/09/30 15:08:56;;;;;;;6.93;1.63;;;;;;;;;;5113500;28;20056;-62
2021/09/30 15:11:41;;;;;;;6.93;1.23;;;;;;;;;;5113389;27;20134;-64
2021/09/30 15:14:27;;;;;;;5.38;1.02;;;;;;;;;;5114923;28;20048;-63
2021/09/30 15:17:23;;;;;;;5.30;1.20;;;;;;;;;;5114266;28;20047;-63
2021/09/30 15:22:57;;;;;;;11.52;2.03;;;;;;;;;;5115596;28;20055;-64
2021/09/30 15:25:43;;;;;;;4.20;1.17;;;;;;;;;;5114672;28;20055;-63
2021/09/30 15:28:29;;;;;;;4.00;1.08;;;;;;;;;;5095269;28;20052;-64
2021/09/30 15:31:15;;;;;;;7.13;1.23;;;;;;;;;;5094485;28;20044;-63
2021/09/30 15:34:00;;;;;;;5.88;1.38;;;;;;;;;;5100691;28;20039;-63
2021/09/30 15:36:46;;;;;;;3.83;1.00;;;;;;;;;;5115229;28;20047;-63
2021/09/30 15:39:31;;;;;;;4.97;1.00;;;;;;;;;;5113316;28;20245;-62
2021/09/30 15:42:17;;;;;;;4.78;0.93;;;;;;;;;;5105166;28;20048;-62
2021/09/30 15:45:02;;;;;;;4.43;1.13;;;;;;;;;;5114367;28;20055;-62
2021/09/30 15:47:47;;;;;;;6.78;1.55;;;;;;;;;;5114440;28;20429;-62
2021/09/30 15:50:33;;;;;;;4.75;1.00;;;;;;;;;;5114444;28;20056;-62
2021/09/30 15:53:18;;;;;;;4.45;1.30;;;;;;;;;;5112954;28;20052;-62
2021/09/30 15:56:03;;;;;;;2.53;1.05;;;;;;;;;;5114359;28;20047;-62
2021/09/30 15:58:49;;;;;;;4.13;1.05;;;;;;;;;;5114150;28;20489;-62
2021/09/30 16:01:34;;;;;;;6.47;1.02;;;;;;;;;;5113730;28;20047;-62
2021/09/30 16:04:19;;;;;;;8.00;1.83;;;;;;;;;;5113987;28;20056;-62
2021/09/30 16:07:05;;;;;;;9.48;1.67;;;;;;;;;;5114145;28;20447;-62
2021/09/30 16:09:50;;;;;;;6.55;1.63;;;;;;;;;;5114223;28;20043;-62
2021/09/30 16:12:36;;;;;;;4.78;0.88;;;;;;;;;;5112975;28;20048;-62
2021/09/30 16:15:21;;;;;;;4.03;1.15;;;;;;;;;;5113080;28;20495;-62
2021/09/30 16:18:06;;;;;;;6.55;1.55;;;;;;;;;;5113868;28;20044;-62
2021/09/30 16:20:52;;;;;;;5.45;1.00;;;;;;;;;;5113818;28;20049;-62
2021/09/30 16:23:37;;;;;;;6.03;1.15;;;;;;;;;;5113682;28;20055;-62
2021/09/30 16:26:22;;;;;;;7.05;1.38;;;;;;;;;;5111315;28;20472;-62
2021/09/30 16:29:08;;;;;;;4.45;1.20;;;;;;;;;;5113530;28;20052;-62
2021/09/30 16:31:53;;;;;;;4.40;1.08;;;;;;;;;;5112465;28;20048;-62
2021/09/30 16:34:39;;;;;;;5.53;1.30;;;;;;;;;;5110818;28;20089;-62
2021/09/30 16:37:24;;;;;;;6.70;1.13;;;;;;;;;;5108186;28;20066;-62
2021/09/30 16:40:09;;;;;;;7.03;1.52;;;;;;;;;;5109951;28;20088;-62
2021/09/30 16:42:55;;;;;;;7.05;1.02;;;;;;;;;;5110906;28;20080;-62
2021/09/30 16:45:40;;;;;;;5.18;1.38;;;;;;;;;;5110752;28;20108;-62
2021/09/30 16:48:25;;;;;;;7.38;1.70;;;;;;;;;;5103261;28;20051;-61
2021/09/30 16:51:10;;;;;;;7.15;1.20;;;;;;;;;;5091218;28;20402;-61
2021/09/30 16:53:55;;;;;;;7.88;1.40;;;;;;;;;;5110265;28;20119;-61
2021/09/30 16:56:41;;;;;;;5.78;1.33;;;;;;;;;;5110002;28;20123;-62
2021/09/30 16:59:26;;;;;;;8.20;1.40;;;;;;;;;;5093266;28;20791;-65
2021/09/30 17:02:13;;;;;;;4.82;1.10;;;;;;;;;;5108246;28;20425;-61
2021/09/30 17:04:58;;;;;;;9.27;1.45;;;;;;;;;;5109282;28;20059;-64
2021/09/30 17:07:44;;;;;;;5.90;1.92;;;;;;;;;;5110000;28;20048;-61
2021/09/30 17:10:30;;;;;;;6.93;1.05;;;;;;;;;;5110406;28;20421;-61
2021/09/30 17:13:15;;;;;;;6.75;1.92;;;;;;;;;;5091624;28;20052;-62
2021/09/30 17:16:00;;;;;;;6.55;1.40;;;;;;;;;;5109904;28;20494;-62
2021/09/30 17:18:46;;;;;;;4.82;1.50;;;;;;;;;;5110730;28;20421;-62
2021/09/30 17:21:31;;;;;;;11.43;1.80;;;;;;;;;;5110131;28;20047;-62
2021/09/30 17:24:18;;;;;;;8.07;1.85;;;;;;;;;;5109342;28;20043;-62
2021/09/30 17:27:03;;;;;;;7.53;2.35;;;;;;;;;;5108903;28;20089;-62
2021/09/30 17:29:49;;;;;;;5.20;1.58;;;;;;;;;;5110535;28;20056;-62
2021/09/30 17:32:34;;;;;;;9.48;1.65;;;;;;;;;;5110421;28;20055;-62
2021/09/30 17:35:19;;;;;;;6.82;1.42;;;;;;;;;;5088925;28;20074;-62
2021/09/30 17:38:04;;;;;;;8.07;1.20;;;;;;;;;;5088924;28;20052;-62
2021/09/30 17:40:49;;;;;;;8.95;2.00;;;;;;;;;;5089687;28;20418;-62
2021/09/30 17:43:35;;;;;;;9.48;1.80;;;;;;;;;;5089391;28;20135;-61
2021/09/30 17:46:20;;;;;;;6.10;1.90;;;;;;;;;;5088930;28;20048;-62
2021/09/30 17:49:05;;;;;;;7.47;1.52;;;;;;;;;;5084775;28;20765;-66
2021/09/30 17:51:52;;;;;;;7.80;1.88;;;;;;;;;;5089697;28;20056;-61
2021/09/30 17:54:37;;;;;;;6.63;1.23;;;;;;;;;;5089354;28;20048;-62
2021/09/30 17:57:23;;;;;;;8.07;2.15;;;;;;;;;;5088040;28;20044;-62
2021/09/30 18:00:09;;;;;;;8.85;2.10;;;;;;;;;;5089036;28;20047;-62
2021/09/30 18:02:54;;;;;;;3.75;1.65;;;;;;;;;;5096701;28;20044;-62
2021/09/30 18:05:40;;;;;;;5.30;1.67;;;;;;;;;;5107341;28;20048;-62
2021/09/30 18:08:25;;;;;;;8.95;2.65;;;;;;;;;;5107798;28;20047;-61
2021/09/30 18:11:10;;;;;;;11.00;2.28;;;;;;;;;;5108314;28;20040;-61
2021/09/30 18:13:55;;;;;;;6.88;1.90;;;;;;;;;;5106916;28;20044;-60
2021/09/30 18:16:41;;;;;;;4.93;1.50;;;;;;;;;;5109644;28;20052;-61
2021/09/30 18:19:27;;;;;;;9.98;1.92;;;;;;;;;;5112826;28;20417;-62
2021/09/30 18:22:13;;;;;;;7.15;1.45;;;;;;;;;;5091771;28;20459;-64
2021/09/30 18:27:50;;;;;;;6.28;1.55;;;;;;;;;;5113487;28;20060;-64
2021/09/30 18:30:35;;;;;;;6.05;1.67;;;;;;;;;;5113700;28;20055;-61
2021/09/30 18:33:22;;;;;;;4.10;1.60;;;;;;;;;;5112803;28;20395;-61
2021/09/30 18:36:07;;;;;;;5.13;1.80;;;;;;;;;;5112924;28;20039;-61
2021/09/30 18:38:53;;;;;;;9.35;1.63;;;;;;;;;;5112752;28;20529;-63
2021/09/30 18:41:39;;;;;;;10.05;2.00;;;;;;;;;;5113189;28;20051;-63
2021/09/30 18:44:26;;;;;;;5.97;1.23;;;;;;;;;;5112435;28;20051;-62
2021/09/30 18:47:12;;;;;;;6.43;1.30;;;;;;;;;;5111736;28;20472;-59
2021/09/30 18:49:57;;;;;;;8.52;1.95;;;;;;;;;;5108144;28;20051;-62
2021/09/30 18:52:42;;;;;;;6.65;1.83;;;;;;;;;;5112766;28;20052;-62
2021/09/30 18:55:27;;;;;;;5.80;1.33;;;;;;;;;;5112630;28;20052;-61
2021/09/30 18:58:13;;;;;;;7.95;2.45;;;;;;;;;;5112311;28;20051;-63
2021/09/30 19:01:00;;;;;;;6.35;1.50;;;;;;;;;;5113766;28;20060;-60
2021/09/30 19:03:45;;;;;;;5.15;1.60;;;;;;;;;;5097699;28;20470;-62
2021/09/30 19:06:30;;;;;;;7.47;1.27;;;;;;;;;;5111309;28;20062;-61
2021/09/30 19:09:16;;;;;;;8.20;1.52;;;;;;;;;;5111199;28;20054;-61
2021/09/30 19:12:01;;;;;;;7.43;1.55;;;;;;;;;;5108424;28;20044;-62
2021/09/30 19:14:47;;;;;;;6.38;1.55;;;;;;;;;;5076078;28;20044;-61
2021/09/30 19:17:32;;;;;;;8.60;1.60;;;;;;;;;;5080597;28;20108;-62
2021/09/30 19:20:17;;;;;;;9.82;1.90;;;;;;;;;;5112746;28;20520;-63
2021/09/30 19:23:02;;;;;;;5.07;1.50;;;;;;;;;;5100908;28;20067;-61
2021/09/30 19:25:50;;;;;;;7.38;1.45;;;;;;;;;;5111810;28;20084;-61
2021/09/30 19:28:36;;;;;;;5.80;1.02;;;;;;;;;;5111728;28;20044;-62
2021/09/30 19:31:21;;;;;;;11.85;1.52;;;;;;;;;;5113859;28;20401;-61